Kineimaru No.128 — JHQS — position and weather

sailwx.info

Track history (hours):
 
Tides and Currents Weather Stations Pressure Air Temp Water Temp Dewpoint Dewpoint Depression Visibility Wind Speed Wind Dir Waves Ship Positions

Kineimaru No.128

Last reported at 2017-Oct-31 05:55 UTC. Time now 2017-Dec-11 14:50 UTC.
Position N 20°22' W 017°60'.
Warning: this ship's position is 41 days out of date.

Length 59 m; draft 4 m.

Type: Fishing. MMSI: 432367000.

Date/timePositionNaut miles runAvg speedWind from/ knotsBaromVisibWave heightAir tempDewpointWater temp
2017-Oct-31 05:55N 20°22' W 017°60'6 4.7
2017-Oct-31 04:42N 20°21' W 018°06'1 4.5
2017-Oct-31 04:30N 20°21' W 018°07'5 6.2
2017-Oct-31 03:44N 20°20' W 018°12'5 5.8
2017-Oct-31 02:53N 20°20' W 018°17'11 6.0
2017-Oct-31 00:59N 20°16' W 018°29'  
2017-Oct-26 06:28N 20°22' W 017°59'59 4.1
2017-Oct-25 16:04N 20°21' W 019°01'0 5.8
2017-Oct-25 16:00N 20°21' W 019°02'2 4.7
2017-Oct-25 15:30N 20°21' W 019°04'1 2.3
2017-Oct-25 14:56N 20°20' W 019°05'1 0.5
2017-Oct-25 11:56N 20°21' W 019°05'1 2.0
2017-Oct-25 11:22N 20°20' W 019°06'511.1
2017-Oct-25 10:56N 20°20' W 019°00'611.0
2017-Oct-25 10:25N 20°20' W 018°54'511.0
2017-Oct-25 10:00N 20°20' W 018°49'510.9
2017-Oct-25 09:30N 20°20' W 018°44'3 0.2
2017-Oct-24 17:51N 20°22' W 018°45'2 4.9
2017-Oct-24 17:30N 20°22' W 018°47'2 4.5
2017-Oct-24 16:58N 20°22' W 018°49'10 4.9
2017-Oct-24 14:57N 20°23' W 018°60'487 9.4
2017-Oct-22 11:01N 27°47' W 015°20'111.9
2017-Oct-22 10:59N 27°47' W 015°20'611.7
2017-Oct-22 10:30N 27°52' W 015°18'611.7
2017-Oct-22 10:00N 27°58' W 015°19'611.6
2017-Oct-22 09:30N 28°04' W 015°21'611.2
2017-Oct-22 09:00N 28°08' W 015°25'1 1.9
2017-Oct-22 08:30N 28°09' W 015°25'0 0.0
2017-Oct-22 08:00N 28°09' W 015°25'0 0.0
2017-Oct-22 07:30N 28°09' W 015°25'0 0.0
2017-Oct-22 07:00N 28°09' W 015°25'0 0.0
2017-Oct-22 06:30N 28°09' W 015°25'0 0.0
2017-Oct-22 06:00N 28°09' W 015°25'0 0.0
2017-Oct-22 05:30N 28°09' W 015°25'0 0.0
2017-Oct-22 05:00N 28°09' W 015°25'0 0.0
2017-Oct-22 04:30N 28°09' W 015°25'0 0.0
2017-Oct-22 04:00N 28°09' W 015°25'0 0.0
2017-Oct-22 03:30N 28°09' W 015°25'0 0.0
2017-Oct-22 03:00N 28°09' W 015°25'0 0.0
2017-Oct-22 02:30N 28°09' W 015°25'0 0.0
2017-Oct-22 02:00N 28°09' W 015°25'0 0.0
2017-Oct-22 01:30N 28°09' W 015°25'0 0.0
2017-Oct-22 01:00N 28°09' W 015°25'0 0.0
2017-Oct-22 00:30N 28°09' W 015°25'0 0.0
2017-Oct-22 00:00N 28°09' W 015°25'0 0.0
2017-Oct-21 23:30N 28°09' W 015°25'0 0.0
2017-Oct-21 23:00N 28°09' W 015°25'0 0.0
2017-Oct-21 22:30N 28°09' W 015°25'0 0.0
2017-Oct-21 22:00N 28°09' W 015°25'0 0.0
2017-Oct-21 21:30N 28°09' W 015°25'0 0.0
2017-Oct-21 21:00N 28°09' W 015°25'0 0.0
2017-Oct-21 20:30N 28°09' W 015°25'0 0.0
2017-Oct-21 20:00N 28°09' W 015°25'0 0.0
2017-Oct-21 19:30N 28°09' W 015°25'0 0.0
2017-Oct-21 19:00N 28°09' W 015°25'0 0.0
2017-Oct-21 18:30N 28°09' W 015°25'0 0.0
2017-Oct-21 18:00N 28°09' W 015°25'0 0.0
2017-Oct-21 17:30N 28°09' W 015°25'0 0.0
2017-Oct-21 17:00N 28°09' W 015°25'0 0.0
2017-Oct-21 16:30N 28°09' W 015°25'0 0.0
2017-Oct-21 16:00N 28°09' W 015°25'0 0.0
2017-Oct-21 15:30N 28°09' W 015°25'0 0.0
2017-Oct-21 15:00N 28°09' W 015°25'0 0.0
2017-Oct-21 14:00N 28°09' W 015°25'0 0.0
2017-Oct-21 13:30N 28°09' W 015°25'0 0.0
2017-Oct-21 13:00N 28°09' W 015°25'0 0.0
2017-Oct-21 12:30N 28°09' W 015°25'0 0.0
2017-Oct-21 12:00N 28°09' W 015°25'0 0.0
2017-Oct-21 11:30N 28°09' W 015°25'0 0.0
2017-Oct-21 11:00N 28°09' W 015°25'0 0.0
2017-Oct-21 10:30N 28°09' W 015°25'0 0.0
2017-Oct-21 10:00N 28°09' W 015°25'0 0.0
2017-Oct-21 09:30N 28°09' W 015°25'0 0.0
2017-Oct-21 09:00N 28°09' W 015°25'0 0.0
2017-Oct-21 08:30N 28°09' W 015°25'0 0.0
2017-Oct-21 08:00N 28°09' W 015°25'0 0.0
2017-Oct-21 07:30N 28°09' W 015°25'1 1.3
2017-Oct-21 07:00N 28°08' W 015°25'4 7.6
2017-Oct-21 06:30N 28°08' W 015°21'5 9.0
2017-Oct-21 06:00N 28°11' W 015°17'  
Track history (hours):
 
Tides and Currents Weather Stations Pressure Air Temp Water Temp Dewpoint Dewpoint Depression Visibility Wind Speed Wind Dir Waves Ship Positions

Kineimaru No.128

Last reported at 2017-Oct-31 05:55 UTC. Time now 2017-Dec-11 14:50 UTC.
Position N 20°22' W 017°60'.
Warning: this ship's position is 41 days out of date.

Length 59 m; draft 4 m.

Type: Fishing. MMSI: 432367000.

Date/timePositionNaut miles runAvg speedWind from/ knotsBaromVisibWave heightAir tempDewpointWater temp
2017-Oct-31 05:55N 20°22' W 017°60'6 4.7
2017-Oct-31 04:42N 20°21' W 018°06'1 4.5
2017-Oct-31 04:30N 20°21' W 018°07'5 6.2
2017-Oct-31 03:44N 20°20' W 018°12'5 5.8
2017-Oct-31 02:53N 20°20' W 018°17'11 6.0
2017-Oct-31 00:59N 20°16' W 018°29'  
2017-Oct-26 06:28N 20°22' W 017°59'59 4.1
2017-Oct-25 16:04N 20°21' W 019°01'0 5.8
2017-Oct-25 16:00N 20°21' W 019°02'2 4.7
2017-Oct-25 15:30N 20°21' W 019°04'1 2.3
2017-Oct-25 14:56N 20°20' W 019°05'1 0.5
2017-Oct-25 11:56N 20°21' W 019°05'1 2.0
2017-Oct-25 11:22N 20°20' W 019°06'511.1
2017-Oct-25 10:56N 20°20' W 019°00'611.0
2017-Oct-25 10:25N 20°20' W 018°54'511.0
2017-Oct-25 10:00N 20°20' W 018°49'510.9
2017-Oct-25 09:30N 20°20' W 018°44'3 0.2
2017-Oct-24 17:51N 20°22' W 018°45'2 4.9
2017-Oct-24 17:30N 20°22' W 018°47'2 4.5
2017-Oct-24 16:58N 20°22' W 018°49'10 4.9
2017-Oct-24 14:57N 20°23' W 018°60'487 9.4
2017-Oct-22 11:01N 27°47' W 015°20'111.9
2017-Oct-22 10:59N 27°47' W 015°20'611.7
2017-Oct-22 10:30N 27°52' W 015°18'611.7
2017-Oct-22 10:00N 27°58' W 015°19'611.6
2017-Oct-22 09:30N 28°04' W 015°21'611.2
2017-Oct-22 09:00N 28°08' W 015°25'1 1.9
2017-Oct-22 08:30N 28°09' W 015°25'0 0.0
2017-Oct-22 08:00N 28°09' W 015°25'0 0.0
2017-Oct-22 07:30N 28°09' W 015°25'0 0.0
2017-Oct-22 07:00N 28°09' W 015°25'0 0.0
2017-Oct-22 06:30N 28°09' W 015°25'0 0.0
2017-Oct-22 06:00N 28°09' W 015°25'0 0.0
2017-Oct-22 05:30N 28°09' W 015°25'0 0.0
2017-Oct-22 05:00N 28°09' W 015°25'0 0.0
2017-Oct-22 04:30N 28°09' W 015°25'0 0.0
2017-Oct-22 04:00N 28°09' W 015°25'0 0.0
2017-Oct-22 03:30N 28°09' W 015°25'0 0.0
2017-Oct-22 03:00N 28°09' W 015°25'0 0.0
2017-Oct-22 02:30N 28°09' W 015°25'0 0.0
2017-Oct-22 02:00N 28°09' W 015°25'0 0.0
2017-Oct-22 01:30N 28°09' W 015°25'0 0.0
2017-Oct-22 01:00N 28°09' W 015°25'0 0.0
2017-Oct-22 00:30N 28°09' W 015°25'0 0.0
2017-Oct-22 00:00N 28°09' W 015°25'0 0.0
2017-Oct-21 23:30N 28°09' W 015°25'0 0.0
2017-Oct-21 23:00N 28°09' W 015°25'0 0.0
2017-Oct-21 22:30N 28°09' W 015°25'0 0.0
2017-Oct-21 22:00N 28°09' W 015°25'0 0.0
2017-Oct-21 21:30N 28°09' W 015°25'0 0.0
2017-Oct-21 21:00N 28°09' W 015°25'0 0.0
2017-Oct-21 20:30N 28°09' W 015°25'0 0.0
2017-Oct-21 20:00N 28°09' W 015°25'0 0.0
2017-Oct-21 19:30N 28°09' W 015°25'0 0.0
2017-Oct-21 19:00N 28°09' W 015°25'0 0.0
2017-Oct-21 18:30N 28°09' W 015°25'0 0.0
2017-Oct-21 18:00N 28°09' W 015°25'0 0.0
2017-Oct-21 17:30N 28°09' W 015°25'0 0.0
2017-Oct-21 17:00N 28°09' W 015°25'0 0.0
2017-Oct-21 16:30N 28°09' W 015°25'0 0.0
2017-Oct-21 16:00N 28°09' W 015°25'0 0.0
2017-Oct-21 15:30N 28°09' W 015°25'0 0.0
2017-Oct-21 15:00N 28°09' W 015°25'0 0.0
2017-Oct-21 14:00N 28°09' W 015°25'0 0.0
2017-Oct-21 13:30N 28°09' W 015°25'0 0.0
2017-Oct-21 13:00N 28°09' W 015°25'0 0.0
2017-Oct-21 12:30N 28°09' W 015°25'0 0.0
2017-Oct-21 12:00N 28°09' W 015°25'0 0.0
2017-Oct-21 11:30N 28°09' W 015°25'0 0.0
2017-Oct-21 11:00N 28°09' W 015°25'0 0.0
2017-Oct-21 10:30N 28°09' W 015°25'0 0.0
2017-Oct-21 10:00N 28°09' W 015°25'0 0.0
2017-Oct-21 09:30N 28°09' W 015°25'0 0.0
2017-Oct-21 09:00N 28°09' W 015°25'0 0.0
2017-Oct-21 08:30N 28°09' W 015°25'0 0.0
2017-Oct-21 08:00N 28°09' W 015°25'0 0.0
2017-Oct-21 07:30N 28°09' W 015°25'1 1.3
2017-Oct-21 07:00N 28°08' W 015°25'4 7.6
2017-Oct-21 06:30N 28°08' W 015°21'5 9.0
2017-Oct-21 06:00N 28°11' W 015°17'  

Dump ship's entire track history